Accueil
METAR-TAF:

METAR-TAF

Aéroports :

Aéroport international de Genève

Genève, Suisse

latitude: 46-15N, longitude: 006-08E, altitude: 420 m

Observation

Le bulletin a été fait il y a 22 minutes, à 02:20 UTC
Vent 4 kt de sud-ouest
Température 5°C
Humidité 81%
Pression 1007 hPa
Visibilité 10 km ou plus
Ciel couvert à une hauteur de 3700 ft

METAR: LSGG 040220Z AUTO 22004KT 9999 OVC037 05/02 Q1007 NOSIG

Heure: 03:42 (02:42 UTC)

Prévision

Le bulletin a été fait il y a 3 heures et 17 minutes, à 23:25 UTC
Prévision valable du 04 à 00 UTC au 05 à 06 UTC
Vent 3 kt de sud-ouest
Visibilité 10 km ou plus
Nuages fragmentés à une hauteur de 4000 ft

TAF: LSGG 032325Z 0400/0506 23003KT 9999 BKN040 TX12/0415Z TN04/0406Z TN03/0506Z

Observations et prévisions météorologiques de plus de 4000 aéroports (messages METAR et TAF).

Les stations disponibles sont représentées par des disques jaunes et rouges sur la carte.

Passer la souris dessus pour voir le nom de la station.

Cliquer dessus pour voir les observations et prévisions météorologiques.

Pour changer de carte: cliquez sur les boutons verts avec une croix noire pour zoomer, sur le bouton vert avec un tiret pour effectuer un zoom arrière, ou sur les flèches vertes pour les cartes adjacentes.


METAR-TAF: